createdAt,value
2022-09-18T00:02:34.038Z,16.92
2022-09-18T00:05:39.420Z,17.00
2022-09-18T00:08:44.717Z,17.00
2022-09-18T00:11:51.043Z,17.01
2022-09-18T00:14:55.579Z,17.11
2022-09-18T00:18:00.217Z,17.24
2022-09-18T00:21:08.538Z,17.34
2022-09-18T00:24:13.511Z,17.46
2022-09-18T00:27:18.088Z,17.73
2022-09-18T00:30:22.641Z,17.88
2022-09-18T00:33:27.259Z,17.96
2022-09-18T00:36:31.939Z,18.02
2022-09-18T00:39:38.981Z,18.08
2022-09-18T00:42:43.844Z,18.11
2022-09-18T00:45:52.080Z,18.11
2022-09-18T00:49:16.923Z,18.10
2022-09-18T00:52:23.296Z,18.22
2022-09-18T00:55:35.583Z,18.32
2022-09-18T00:58:41.543Z,18.43
2022-09-18T01:01:57.091Z,18.61
2022-09-18T01:05:04.941Z,18.76
2022-09-18T01:08:25.032Z,19.33
2022-09-18T01:11:29.195Z,20.68
2022-09-18T01:14:33.468Z,21.03
2022-09-18T01:17:41.408Z,21.14
2022-09-18T01:20:53.088Z,20.74
2022-09-18T01:24:12.875Z,20.76
2022-09-18T01:27:39.155Z,20.80
2022-09-18T01:30:47.197Z,21.46
2022-09-18T01:33:59.741Z,22.00
2022-09-18T01:37:30.858Z,22.83
2022-09-18T01:40:39.986Z,22.39
2022-09-18T01:43:45.855Z,22.07
2022-09-18T01:46:52.060Z,21.74
2022-09-18T01:50:00.404Z,21.79
2022-09-18T01:53:13.686Z,21.72
2022-09-18T01:56:27.517Z,21.40
2022-09-18T01:59:36.240Z,21.19
2022-09-18T02:02:55.586Z,21.12
2022-09-18T02:06:15.181Z,21.13
2022-09-18T02:09:19.554Z,21.18
2022-09-18T02:12:26.779Z,21.03
2022-09-18T02:15:38.936Z,20.78
2022-09-18T02:18:53.432Z,20.63
2022-09-18T02:21:59.863Z,20.60
2022-09-18T02:25:07.214Z,20.51
2022-09-18T02:28:14.676Z,20.63
2022-09-18T02:31:19.256Z,20.67
2022-09-18T02:34:23.896Z,20.55
2022-09-18T02:37:41.220Z,20.38
2022-09-18T02:41:00.133Z,20.45
2022-09-18T02:44:17.008Z,20.47
2022-09-18T02:47:31.330Z,20.59
2022-09-18T02:50:51.266Z,20.60
2022-09-18T02:54:15.508Z,20.66
2022-09-18T02:57:31.055Z,20.76
2022-09-18T03:00:42.880Z,20.93
2022-09-18T03:03:52.824Z,21.04
2022-09-18T03:07:05.856Z,21.20
2022-09-18T03:10:17.009Z,21.25
2022-09-18T03:13:22.237Z,21.20
2022-09-18T03:16:26.717Z,21.31
2022-09-18T03:19:31.838Z,21.34
2022-09-18T03:22:37.577Z,21.32
2022-09-18T03:25:42.144Z,21.41
2022-09-18T03:28:47.020Z,21.40
2022-09-18T03:31:51.730Z,21.40
2022-09-18T03:34:57.029Z,21.30
2022-09-18T03:38:04.187Z,21.34
2022-09-18T03:41:08.813Z,21.51
2022-09-18T03:44:17.491Z,21.84
2022-09-18T03:47:24.549Z,22.00
2022-09-18T03:50:29.398Z,22.04
2022-09-18T03:53:34.198Z,21.94
2022-09-18T03:56:57.261Z,22.20
2022-09-18T04:00:29.372Z,22.24
2022-09-18T04:03:53.070Z,22.02
2022-09-18T04:07:32.510Z,22.06
2022-09-18T04:10:56.977Z,22.14
2022-09-18T04:14:01.986Z,21.89
2022-09-18T04:17:06.616Z,21.63
2022-09-18T04:20:11.430Z,21.69
2022-09-18T04:23:16.293Z,22.02
2022-09-18T04:26:36.031Z,22.10
2022-09-18T04:29:59.475Z,22.21
2022-09-18T04:33:28.192Z,22.15
2022-09-18T04:36:33.055Z,22.12
2022-09-18T04:39:40.377Z,22.06
2022-09-18T04:42:46.442Z,21.81
2022-09-18T04:45:51.112Z,21.53
2022-09-18T04:48:57.847Z,21.44
2022-09-18T04:52:04.600Z,21.54
2022-09-18T04:55:09.092Z,21.46
2022-09-18T04:58:17.462Z,21.54
2022-09-18T05:01:25.126Z,21.49
2022-09-18T05:04:29.846Z,21.51
2022-09-18T05:07:48.010Z,21.53
2022-09-18T05:10:53.976Z,21.44
2022-09-18T05:13:59.395Z,21.34
2022-09-18T05:17:07.460Z,21.33
2022-09-18T05:20:15.289Z,21.44
2022-09-18T05:23:20.431Z,21.48
2022-09-18T05:26:25.067Z,21.58
2022-09-18T05:29:31.798Z,21.58
2022-09-18T05:32:45.604Z,21.56
2022-09-18T05:35:54.786Z,21.57
2022-09-18T05:38:59.378Z,21.42
2022-09-18T05:42:05.043Z,21.27
2022-09-18T05:45:10.457Z,21.39
2022-09-18T05:48:15.011Z,21.39
2022-09-18T05:51:19.778Z,21.28
2022-09-18T05:54:24.911Z,21.27
2022-09-18T05:57:29.223Z,21.18
2022-09-18T06:00:34.362Z,21.22
2022-09-18T06:03:45.755Z,21.09
2022-09-18T06:06:50.086Z,21.02
2022-09-18T06:09:54.564Z,21.22
2022-09-18T06:13:05.116Z,21.44
2022-09-18T06:16:09.528Z,21.48
2022-09-18T06:19:27.102Z,21.18
2022-09-18T06:22:33.655Z,21.30
2022-09-18T06:25:39.731Z,21.40
2022-09-18T06:28:45.868Z,21.48
2022-09-18T06:31:50.226Z,21.46
2022-09-18T06:35:03.529Z,21.65
2022-09-18T06:38:08.585Z,21.73
2022-09-18T06:41:21.287Z,21.78
2022-09-18T06:44:28.627Z,21.85
2022-09-18T06:47:43.673Z,21.96
2022-09-18T06:50:56.476Z,22.07
2022-09-18T06:54:03.409Z,22.16
2022-09-18T06:57:09.279Z,22.10
2022-09-18T07:00:14.386Z,21.97
2022-09-18T07:03:18.933Z,21.85
2022-09-18T07:06:27.382Z,21.73
2022-09-18T07:09:32.797Z,21.68
2022-09-18T07:12:47.743Z,21.73
2022-09-18T07:15:52.747Z,21.55
2022-09-18T07:18:57.478Z,21.65
2022-09-18T07:22:02.208Z,21.67
2022-09-18T07:25:11.726Z,21.73
2022-09-18T07:28:20.059Z,21.68
2022-09-18T07:31:35.946Z,21.56
2022-09-18T07:34:43.505Z,21.52
2022-09-18T07:37:50.644Z,21.45
2022-09-18T07:41:07.949Z,21.37
2022-09-18T07:44:12.887Z,21.44
2022-09-18T07:47:18.351Z,21.40
2022-09-18T07:50:23.936Z,21.32
2022-09-18T07:53:30.682Z,21.31
2022-09-18T07:56:36.807Z,21.24
2022-09-18T07:59:41.714Z,21.18
2022-09-18T08:02:47.411Z,21.42
2022-09-18T08:06:05.764Z,21.11
2022-09-18T08:09:12.019Z,20.94
2022-09-18T08:12:35.165Z,21.03
2022-09-18T08:15:58.823Z,20.94
2022-09-18T08:19:22.865Z,20.87
2022-09-18T08:22:41.168Z,20.82
2022-09-18T08:25:48.403Z,20.89
2022-09-18T08:28:52.993Z,20.77
2022-09-18T08:31:58.311Z,20.66
2022-09-18T08:35:03.743Z,20.49
2022-09-18T08:38:11.394Z,20.38
2022-09-18T08:42:03.137Z,20.24
2022-09-18T08:45:28.906Z,20.12
2022-09-18T08:48:38.401Z,20.07
2022-09-18T08:51:47.113Z,20.10
2022-09-18T08:54:52.439Z,19.98
2022-09-18T08:58:12.866Z,19.84
2022-09-18T09:01:23.839Z,19.77
2022-09-18T09:04:40.843Z,19.71
2022-09-18T09:08:00.008Z,19.61
2022-09-18T09:11:15.159Z,19.54
2022-09-18T09:14:52.767Z,19.47
2022-09-18T09:18:06.435Z,19.35
2022-09-18T09:21:21.425Z,19.28
2022-09-18T09:24:35.797Z,19.29
2022-09-18T09:28:03.567Z,19.28
2022-09-18T09:31:29.205Z,19.17
2022-09-18T09:35:17.849Z,19.06
2022-09-18T09:38:47.278Z,18.84
2022-09-18T09:42:06.203Z,18.50
2022-09-18T09:45:14.350Z,18.28
2022-09-18T09:48:24.409Z,18.23
2022-09-18T09:51:42.675Z,18.21
2022-09-18T09:54:47.266Z,18.09
2022-09-18T09:58:01.128Z,18.20
2022-09-18T10:01:06.013Z,18.19
2022-09-18T10:04:10.792Z,18.18
2022-09-18T10:07:28.832Z,18.26
2022-09-18T10:10:49.357Z,18.26
2022-09-18T10:13:58.521Z,18.27
2022-09-18T10:17:04.573Z,18.38
2022-09-18T10:20:12.654Z,18.51
2022-09-18T10:23:25.751Z,18.66
2022-09-18T10:26:36.338Z,18.73
2022-09-18T10:29:41.129Z,18.78
2022-09-18T10:32:48.888Z,18.80
2022-09-18T10:36:13.522Z,18.86
2022-09-18T10:39:19.831Z,18.84
2022-09-18T10:42:27.680Z,18.87
2022-09-18T10:45:42.721Z,18.74
2022-09-18T10:49:19.473Z,18.60
2022-09-18T10:52:35.847Z,18.52
2022-09-18T10:55:56.016Z,18.42
2022-09-18T10:59:14.808Z,18.31
2022-09-18T11:02:21.378Z,17.93
2022-09-18T11:05:40.204Z,17.60
2022-09-18T11:08:46.387Z,17.53
2022-09-18T11:11:52.926Z,17.54
2022-09-18T11:15:08.512Z,17.49
2022-09-18T11:18:16.823Z,17.44
2022-09-18T11:21:21.219Z,17.41
2022-09-18T11:24:30.035Z,17.29
2022-09-18T11:27:47.099Z,17.06
2022-09-18T11:31:00.115Z,17.00
2022-09-18T11:34:06.507Z,17.16
2022-09-18T11:37:15.827Z,17.05
2022-09-18T11:40:20.882Z,17.09
2022-09-18T11:43:28.621Z,16.99
2022-09-18T11:46:42.278Z,16.77
2022-09-18T11:49:50.121Z,16.77
2022-09-18T11:52:57.929Z,16.75
2022-09-18T11:56:09.028Z,16.73
2022-09-18T11:59:25.183Z,16.58
2022-09-18T12:02:52.707Z,16.56
2022-09-18T12:06:21.005Z,16.24
2022-09-18T12:09:43.816Z,16.28
2022-09-18T12:12:51.299Z,16.19
2022-09-18T12:16:14.579Z,16.17
2022-09-18T12:19:19.937Z,16.14
2022-09-18T12:22:46.875Z,16.11
2022-09-18T12:26:03.782Z,15.93
2022-09-18T12:29:26.844Z,15.87
2022-09-18T12:32:35.830Z,15.63
2022-09-18T12:35:58.939Z,15.47
2022-09-18T12:39:19.697Z,15.32
2022-09-18T12:42:30.425Z,15.31
2022-09-18T12:45:41.229Z,15.29
2022-09-18T12:48:59.308Z,15.31
2022-09-18T12:52:04.092Z,15.38
2022-09-18T12:55:18.866Z,15.40
2022-09-18T12:58:32.391Z,15.34
2022-09-18T13:01:46.208Z,15.16
2022-09-18T13:05:16.998Z,15.16
2022-09-18T13:08:25.173Z,15.03
2022-09-18T13:11:48.387Z,14.90
2022-09-18T13:14:56.506Z,14.80
2022-09-18T13:18:21.774Z,14.69
2022-09-18T13:21:26.321Z,14.57
2022-09-18T13:24:34.805Z,14.52
2022-09-18T13:27:39.710Z,14.45
2022-09-18T13:30:44.685Z,14.43
2022-09-18T13:34:01.261Z,14.33
2022-09-18T13:37:07.458Z,14.36
2022-09-18T13:40:32.106Z,14.54
2022-09-18T13:43:44.960Z,14.66
2022-09-18T13:46:50.938Z,14.61
2022-09-18T13:50:00.823Z,14.46
2022-09-18T13:53:30.717Z,14.13
2022-09-18T13:56:54.818Z,13.97
2022-09-18T14:00:02.121Z,13.90
2022-09-18T14:03:15.975Z,13.81
2022-09-18T14:06:37.643Z,13.82
2022-09-18T14:10:04.879Z,13.82
2022-09-18T14:13:09.728Z,13.78
2022-09-18T14:16:20.899Z,13.74
2022-09-18T14:19:33.573Z,13.88
2022-09-18T14:22:41.201Z,13.79
2022-09-18T14:25:47.077Z,13.67
2022-09-18T14:28:52.405Z,13.56
2022-09-18T14:32:00.307Z,13.54
2022-09-18T14:35:26.880Z,13.71
2022-09-18T14:38:35.838Z,13.72
2022-09-18T14:41:40.516Z,13.73
2022-09-18T14:44:55.953Z,13.55
2022-09-18T14:48:01.162Z,13.31
2022-09-18T14:51:08.026Z,13.30
2022-09-18T14:54:20.273Z,13.26
2022-09-18T14:57:36.103Z,13.31
2022-09-18T15:00:40.688Z,13.31
2022-09-18T15:03:47.455Z,13.30
2022-09-18T15:06:54.580Z,13.21
2022-09-18T15:10:01.440Z,13.25
2022-09-18T15:13:08.303Z,13.21
2022-09-18T15:16:19.345Z,13.15
2022-09-18T15:19:23.942Z,13.06
2022-09-18T15:22:28.999Z,12.98
2022-09-18T15:25:34.758Z,12.99
2022-09-18T15:28:39.495Z,12.94
2022-09-18T15:31:44.399Z,13.06
2022-09-18T15:34:50.831Z,12.94
2022-09-18T15:38:03.110Z,12.78
2022-09-18T15:41:37.157Z,12.80
2022-09-18T15:45:01.568Z,12.83
2022-09-18T15:48:26.137Z,12.85
2022-09-18T15:51:35.225Z,12.86
2022-09-18T15:54:39.687Z,12.90
2022-09-18T15:58:04.839Z,12.92
2022-09-18T16:01:20.706Z,12.99
2022-09-18T16:04:27.956Z,12.99
2022-09-18T16:07:32.549Z,12.92
2022-09-18T16:10:40.496Z,12.78
2022-09-18T16:13:45.174Z,12.85
2022-09-18T16:16:49.940Z,12.87
2022-09-18T16:19:55.089Z,12.74
2022-09-18T16:23:07.892Z,12.77
2022-09-18T16:26:14.543Z,12.77
2022-09-18T16:29:21.038Z,12.74
2022-09-18T16:32:25.529Z,12.70
2022-09-18T16:35:30.040Z,12.69
2022-09-18T16:38:35.129Z,12.64
2022-09-18T16:41:39.738Z,12.63
2022-09-18T16:44:44.157Z,12.47
2022-09-18T16:47:49.836Z,12.61
2022-09-18T16:50:54.332Z,12.71
2022-09-18T16:53:58.763Z,12.67
2022-09-18T16:57:05.891Z,12.65
2022-09-18T17:00:11.584Z,12.83
2022-09-18T17:03:16.551Z,12.70
2022-09-18T17:06:21.032Z,12.61
2022-09-18T17:09:25.787Z,12.64
2022-09-18T17:12:30.178Z,12.62
2022-09-18T17:15:34.749Z,12.61
2022-09-18T17:18:39.038Z,12.58
2022-09-18T17:21:43.603Z,12.60
2022-09-18T17:24:48.140Z,12.66
2022-09-18T17:27:53.646Z,12.49
2022-09-18T17:30:58.666Z,12.19
2022-09-18T17:34:03.324Z,12.14
2022-09-18T17:37:07.851Z,12.16
2022-09-18T17:40:12.368Z,12.27
2022-09-18T17:43:17.511Z,12.30
2022-09-18T17:46:21.937Z,12.37
2022-09-18T17:49:27.095Z,12.36
2022-09-18T17:52:33.788Z,12.26
2022-09-18T17:55:38.692Z,12.43
2022-09-18T17:58:45.189Z,12.50
2022-09-18T18:01:50.101Z,12.41
2022-09-18T18:04:54.754Z,12.46
2022-09-18T18:07:59.120Z,12.41
2022-09-18T18:11:04.983Z,12.36
2022-09-18T18:14:09.151Z,12.28
2022-09-18T18:17:14.693Z,12.12
2022-09-18T18:20:19.621Z,12.10
2022-09-18T18:23:24.414Z,12.11
2022-09-18T18:26:32.047Z,12.23
2022-09-18T18:29:40.272Z,12.20
2022-09-18T18:32:44.667Z,12.11
2022-09-18T18:35:49.070Z,12.05
2022-09-18T18:38:56.171Z,11.98
2022-09-18T18:42:00.418Z,11.89
2022-09-18T18:45:04.608Z,11.77
2022-09-18T18:48:10.004Z,11.75
2022-09-18T18:51:15.680Z,11.58
2022-09-18T18:54:21.498Z,11.28
2022-09-18T18:57:25.716Z,11.24
2022-09-18T19:00:30.364Z,11.40
2022-09-18T19:03:39.867Z,11.42
2022-09-18T19:06:45.265Z,11.41
2022-09-18T19:09:49.642Z,11.50
2022-09-18T19:12:58.181Z,11.44
2022-09-18T19:16:04.073Z,11.39
2022-09-18T19:19:10.297Z,11.48
2022-09-18T19:22:18.505Z,11.36
2022-09-18T19:25:22.970Z,11.26
2022-09-18T19:28:30.820Z,11.29
2022-09-18T19:31:36.201Z,11.31
2022-09-18T19:34:41.194Z,11.15
2022-09-18T19:37:45.646Z,11.13
2022-09-18T19:40:51.605Z,11.11
2022-09-18T19:43:56.106Z,11.13
2022-09-18T19:47:16.903Z,10.94
2022-09-18T19:50:33.724Z,10.73
2022-09-18T19:53:38.081Z,10.52
2022-09-18T19:56:48.928Z,10.45
2022-09-18T19:59:56.658Z,10.79
2022-09-18T20:03:01.440Z,10.87
2022-09-18T20:06:06.177Z,10.87
2022-09-18T20:09:10.470Z,10.98
2022-09-18T20:12:15.150Z,10.88
2022-09-18T20:15:19.638Z,10.87
2022-09-18T20:18:23.790Z,10.76
2022-09-18T20:21:28.190Z,10.69
2022-09-18T20:24:33.582Z,10.66
2022-09-18T20:27:39.469Z,10.42
2022-09-18T20:30:46.121Z,10.33
2022-09-18T20:33:55.045Z,10.46
2022-09-18T20:36:59.946Z,10.38
2022-09-18T20:40:05.709Z,10.39
2022-09-18T20:43:10.376Z,10.61
2022-09-18T20:46:16.566Z,10.77
2022-09-18T20:49:26.458Z,10.90
2022-09-18T20:52:31.112Z,10.83
2022-09-18T20:55:35.860Z,10.87
2022-09-18T20:58:43.209Z,10.92
2022-09-18T21:01:48.322Z,10.81
2022-09-18T21:04:53.709Z,10.97
2022-09-18T21:07:59.106Z,10.94
2022-09-18T21:11:04.651Z,10.83
2022-09-18T21:14:10.944Z,10.88
2022-09-18T21:17:15.132Z,11.05
2022-09-18T21:20:20.167Z,11.21
2022-09-18T21:23:43.055Z,11.37
2022-09-18T21:26:49.204Z,11.48
2022-09-18T21:29:53.631Z,11.61
2022-09-18T21:32:58.179Z,11.61
2022-09-18T21:36:03.218Z,11.54
2022-09-18T21:39:10.210Z,11.66
2022-09-18T21:42:15.019Z,11.68
2022-09-18T21:45:21.176Z,11.71
2022-09-18T21:48:25.469Z,11.82
2022-09-18T21:51:29.809Z,11.81
2022-09-18T21:54:34.266Z,11.86
2022-09-18T21:57:39.385Z,11.84
2022-09-18T22:00:43.798Z,11.87
2022-09-18T22:03:56.932Z,11.96
2022-09-18T22:07:02.797Z,12.01
2022-09-18T22:10:07.591Z,11.94
2022-09-18T22:13:12.169Z,12.12
2022-09-18T22:16:16.660Z,12.09
2022-09-18T22:19:21.590Z,12.20
2022-09-18T22:22:25.697Z,12.09
2022-09-18T22:25:30.958Z,12.21
2022-09-18T22:28:35.834Z,11.98
2022-09-18T22:31:40.463Z,11.96
2022-09-18T22:34:45.330Z,12.00
2022-09-18T22:37:49.779Z,11.98
2022-09-18T22:40:54.210Z,12.04
2022-09-18T22:43:59.002Z,12.05
2022-09-18T22:47:03.827Z,12.02
2022-09-18T22:50:08.659Z,11.94
2022-09-18T22:53:14.837Z,12.10
2022-09-18T22:56:19.946Z,12.27
2022-09-18T22:59:25.450Z,12.34
2022-09-18T23:02:30.040Z,12.18
2022-09-18T23:05:40.452Z,11.97
2022-09-18T23:08:45.535Z,12.25
2022-09-18T23:11:54.083Z,12.38
2022-09-18T23:14:58.312Z,12.21
2022-09-18T23:18:02.751Z,12.15
2022-09-18T23:21:08.376Z,12.03
2022-09-18T23:24:13.241Z,11.75
2022-09-18T23:27:17.574Z,11.67
2022-09-18T23:30:22.353Z,11.54
2022-09-18T23:34:09.716Z,11.52
2022-09-18T23:37:13.847Z,11.60
2022-09-18T23:40:18.299Z,11.57
2022-09-18T23:43:22.941Z,11.68
2022-09-18T23:46:27.181Z,11.88
2022-09-18T23:49:31.734Z,12.26
2022-09-18T23:52:36.227Z,12.30
2022-09-18T23:55:40.366Z,12.43
2022-09-18T23:58:45.802Z,12.55
